Data for 07/28/2013

Time Sea-Level Adjusted Pressure Absolute Pressure Temperature Relative Humidity Dew Point   
(mb) (inHg) (mb) (inHg) (C) (F) (%) (C) (F)
00:05 1017 30.03 846 24.98 16.2 61.2 53 6.7 44
00:10 1017 30.03 846 24.98 16 60.8 54 6.7 44.1
00:15 1017 30.03 846 24.98 15.8 60.4 56 7 44.6
00:20 1017 30.03 846 24.98 15.7 60.2 55 6.7 44.1
00:25 1017 30.03 846 24.98 15.6 60.2 54 6.5 43.7
00:30 1017 30.03 846 24.98 15.9 60.6 54 6.7 44
00:35 1017 30.03 846 24.98 15.7 60.2 56 7 44.7
00:40 1017 30.03 846 24.98 15.4 59.7 57 7 44.5
00:45 1017 30.03 846 24.98 15.2 59.3 56 6.5 43.8
00:50 1017 30.03 846 24.98 15.1 59.1 56 6.4 43.6
00:55 1017 30.03 846 24.98 15.2 59.3 55 6.4 43.5
01:00 1017 30.03 846 24.98 15.2 59.4 56 6.5 43.8
01:05 1017 30.03 846 24.98 15.2 59.3 58 7 44.6
01:10 1017 30.03 846 24.98 15.4 59.8 52 5.7 42.3
01:15 1017 30.03 846 24.98 15.6 60.1 51 5.6 42.1
01:20 1017 30.03 846 24.98 15.6 60.1 50 5.5 41.8
01:25 1017 30.03 846 24.98 15.2 59.3 56 6.5 43.7
01:30 1017 30.03 846 24.98 15.2 59.3 55 6.3 43.3
01:35 1017 30.03 846 24.98 15.3 59.5 54 6 42.8
01:40 1017 30.03 846 24.98 15 59 55 6 42.8
01:45 1017 30.03 846 24.98 14.8 58.6 55 5.8 42.5
01:50 1017 30.03 846 24.98 14.8 58.6 54 5.7 42.2
01:55 1017 30.03 846 24.98 14.9 58.8 54 5.7 42.3
02:00 1016 30 846 24.98 14.9 58.9 54 5.8 42.4
02:05 1016 30 846 24.98 15 58.9 54 5.8 42.4
02:10 1016 30 846 24.98 14.7 58.4 55 5.8 42.5
02:15 1017 30.03 846 24.98 14.4 57.9 56 5.7 42.3
02:20 1017 30.03 846 24.98 14.3 57.7 56 5.6 42.1
02:25 1016 30 846 24.98 14.1 57.4 57 5.8 42.4
02:30 1016 30 846 24.98 14.2 57.6 58 6.1 42.9
02:35 1016 30 846 24.98 14.3 57.8 58 6.3 43.3
02:40 1017 30.03 846 24.98 14.1 57.3 58 6 42.7
02:45 1017 30.03 846 24.98 14.1 57.3 58 6.1 42.9
02:50 1017 30.03 846 24.98 13.9 57 58 5.9 42.6
02:55 1016 30 846 24.98 14 57.1 58 5.9 42.7
03:00 1017 30.03 846 24.98 13.8 56.9 59 6.1 42.9
03:05 1016 30 846 24.98 13.7 56.6 59 5.8 42.5
03:10 1016 30 846 24.98 14.1 57.3 56 5.5 41.9
03:15 1016 30 846 24.98 14.3 57.7 56 5.7 42.3
03:20 1016 30 846 24.98 14.2 57.6 57 5.8 42.5
03:25 1016 30 846 24.98 13.9 56.9 59 5.9 42.7
03:30 1016 30 846 24.98 13.7 56.7 58 5.7 42.3
03:35 1016 30 846 24.98 13.6 56.4 59 5.9 42.5
03:40 1016 30 846 24.98 13.6 56.5 58 5.7 42.2
03:45 1016 30 846 24.98 13.6 56.5 57 5.4 41.8
03:50 1016 30 846 24.98 13.7 56.6 58 5.6 42.2
03:55 1016 30 846 24.98 13.6 56.6 60 6 42.9
04:00 1016 30 846 24.98 13.4 56.1 62 6.3 43.3
04:05 1016 30 846 24.98 13.2 55.8 62 6.2 43.1
04:10 1016 30 846 24.98 13 55.4 63 6.1 43
04:15 1017 30.03 846 24.98 12.8 55 63 5.9 42.7
04:20 1017 30.03 846 24.98 12.8 55.1 62 5.8 42.5
04:25 1016 30 846 24.98 12.7 54.9 63 5.9 42.6
04:30 1016 30 846 24.98 13.1 55.5 62 5.9 42.7
04:35 1016 30 846 24.98 13.4 56.1 62 6.3 43.3
04:40 1016 30 846 24.98 13.2 55.8 63 6.3 43.3
04:45 1016 30 846 24.98 13.1 55.6 63 6.2 43.2
04:50 1016 30 846 24.98 12.9 55.3 64 6.3 43.3
04:55 1016 30 846 24.98 12.9 55.3 63 6.2 43.1
05:00 1017 30.03 846 24.98 12.9 55.3 63 6.2 43.1
05:05 1017 30.03 846 24.98 12.9 55.3 63 6.2 43.1
05:10 1017 30.03 846 24.98 13.1 55.6 62 6.1 43
05:15 1017 30.03 846 24.98 13.1 55.6 62 6.2 43.1
05:20 1017 30.03 846 24.98 13.1 55.5 62 6 42.8
05:25 1017 30.03 846 24.98 13.3 55.9 61 6 42.8
05:30 1017 30.03 846 24.98 13.4 56.2 61 6.1 42.9
05:35 1017 30.03 846 24.98 13.6 56.4 60 5.9 42.6
05:40 1017 30.03 846 24.98 13.7 56.7 59 5.9 42.6
05:45 1017 30.03 846 24.98 13.9 56.9 58 5.9 42.6
05:50 1017 30.03 846 24.98 14.1 57.4 57 5.7 42.3
05:55 1017 30.03 846 24.98 13.9 57 60 6.4 43.5
06:00 1017 30.03 846 24.98 13.1 55.6 62 6.1 43
06:05 1017 30.03 846 24.98 12.8 55 64 6.3 43.3
06:10 1017 30.03 846 24.98 12.8 55 63 5.9 42.6
06:15 1017 30.03 846 24.98 12.9 55.1 63 6 42.7
06:20 1017 30.03 846 24.98 13 55.4 62 6 42.7
06:25 1017 30.03 846 24.98 13.2 55.7 62 6.1 43
06:30 1017 30.03 846 24.98 13.2 55.8 62 6.3 43.3
06:35 1017 30.03 846 24.98 13.2 55.8 63 6.4 43.6
06:40 1017 30.03 846 24.98 13.2 55.7 64 6.6 44
06:45 1017 30.03 846 24.98 13.2 55.7 63 6.5 43.6
06:50 1017 30.03 846 24.98 13.4 56 63 6.6 43.8
06:55 1017 30.03 846 24.98 13.6 56.4 62 6.6 43.9
07:00 1017 30.03 846 24.98 13.8 56.8 63 6.8 44.3
07:05 1017 30.03 846 24.98 13.9 57.1 62 6.8 44.3
07:10 1017 30.03 846 24.98 14.1 57.4 62 7 44.5
07:15 1017 30.03 846 24.98 14.2 57.5 63 7.2 44.9
07:20 1017 30.03 846 24.98 14.2 57.5 63 7.2 45
07:25 1017 30.03 846 24.98 14.4 58 62 7.4 45.3
07:30 1017 30.03 846 24.98 14.7 58.4 59 6.9 44.5
07:35 1017 30.03 846 24.98 15.1 59.2 60 7.4 45.3
07:40 1017 30.03 846 24.98 15.5 60 61 8.2 46.8
07:45 1017 30.03 846 24.98 16 60.8 57 7.7 45.9
07:50 1017 30.03 846 24.98 16.5 61.7 54 7.3 45.2
07:55 1017 30.03 846 24.98 16.8 62.3 55 7.9 46.2
08:00 1017 30.03 846 24.98 16.9 62.4 55 7.9 46.2
08:05 1017 30.03 846 24.98 17.5 63.4 51 7.2 44.9
08:10 1017 30.03 846 24.98 18.1 64.6 50 7.6 45.6
08:15 1017 30.03 846 24.98 18.9 66 47 7.6 45.6
08:20 1017 30.03 846 24.98 19.1 66.3 49 8.1 46.6
08:25 1017 30.03 846 24.98 18.9 66.1 49 8 46.4
08:30 1017 30.03 846 24.98 19.1 66.3 48 8 46.4
08:35 1017 30.03 846 24.98 19 66.2 49 8.2 46.7
08:40 1017 30.03 846 24.98 18.9 65.9 50 8.3 47
08:45 1017 30.03 846 24.98 19.2 66.5 49 8.3 46.9
08:50 1017 30.03 846 24.98 19.6 67.2 47 8.2 46.8
08:55 1017 30.03 846 24.98 19.1 66.4 50 8.6 47.4
09:00 1017 30.03 846 24.98 18.8 65.8 50 8.3 47
09:05 1017 30.03 846 24.98 19 66.1 50 8.3 47
09:10 1017 30.03 846 24.98 19.2 66.6 48 8.2 46.7
09:15 1017 30.03 846 24.98 19.5 67 49 8.5 47.4
09:20 1017 30.03 846 24.98 19.5 67.1 48 8.5 47.3
09:25 1017 30.03 846 24.98 19.3 66.7 50 8.6 47.5
09:30 1017 30.03 846 24.98 19.4 66.9 49 8.7 47.6
09:35 1017 30.03 846 24.98 19.5 67.1 49 8.6 47.4
09:40 1017 30.03 846 24.98 19.5 67.1 48 8.2 46.8
09:45 1017 30.03 846 24.98 20 68 46 8.1 46.5
09:50 1017 30.03 846 24.98 20.3 68.6 47 8.8 47.9
09:55 1017 30.03 846 24.98 20.3 68.5 46 8.4 47
10:00 1017 30.03 846 24.98 20.8 69.5 43 8 46.4
10:05 1017 30.03 846 24.98 21.3 70.4 44 8.8 47.8
10:10 1017 30.03 846 24.98 20.9 69.5 45 8.6 47.4
10:15 1017 30.03 846 24.98 21.1 70 44 8.4 47.2
10:20 1017 30.03 846 24.98 21.9 71.3 40 7.8 46
10:25 1017 30.03 846 24.98 22.2 72 39 7.6 45.8
10:30 1017 30.03 846 24.98 22.5 72.5 39 8.1 46.6
10:35 1017 30.03 846 24.98 22.3 72.2 40 8.3 47
10:40 1016 30 846 24.98 22.3 72.1 40 8.2 46.7
10:45 1016 30 846 24.98 22.5 72.5 40 8.2 46.8
10:50 1016 30 846 24.98 23.1 73.6 37 7.7 45.8
10:55 1016 30 846 24.98 23.6 74.5 36 7.7 45.9
11:00 1016 30 845 24.95 23.4 74.1 38 8.4 47.1
11:05 1016 30 845 24.95 22.1 71.8 40 7.9 46.3
11:10 1016 30 845 24.95 22.5 72.5 38 7.6 45.7
11:15 1016 30 845 24.95 22.6 72.6 39 7.9 46.3
11:20 1016 30 845 24.95 22.5 72.5 38 7.7 45.8
11:25 1016 30 845 24.95 22.2 72 37 7.1 44.8
11:30 1016 30 845 24.95 24 75.3 34 7.5 45.4
11:35 1016 30 845 24.95 24.1 75.4 33 7.3 45.1
11:40 1016 30 845 24.95 24.5 76.2 31 6.7 44.1
11:45 1016 30 845 24.95 24.7 76.5 34 7.9 46.2
11:50 1016 30 845 24.95 23.7 74.7 35 7.5 45.5
11:55 1016 30 845 24.95 24.3 75.8 34 7.8 46.1
12:00 1016 30 845 24.95 24.8 76.6 34 8.1 46.7
12:05 1016 30 845 24.95 25.6 78.1 29 6.7 44
12:10 1016 30 845 24.95 25.5 77.9 29 6.7 44
12:15 1015 29.97 845 24.95 25.3 77.5 29 6.2 43.2
12:20 1015 29.97 845 24.95 25 77 30 6.5 43.8
12:25 1015 29.97 845 24.95 25.7 78.3 29 6.4 43.5
12:30 1015 29.97 844 24.92 26 78.7 28 6.4 43.4
12:35 1015 29.97 844 24.92 26.4 79.6 27 6.3 43.3
12:40 1015 29.97 844 24.92 26.2 79.2 26 5.5 41.9
12:45 1015 29.97 844 24.92 26.3 79.3 26 5.5 42
12:50 1015 29.97 844 24.92 26.2 79.2 27 6.1 43
12:55 1015 29.97 844 24.92 25.9 78.7 27 5.6 42.1
13:00 1015 29.97 844 24.92 26.1 78.9 27 5.9 42.7
13:05 1015 29.97 844 24.92 26.1 79 27 6 42.9
13:10 1015 29.97 844 24.92 26.8 80.2 26 6.1 43
13:15 1015 29.97 844 24.92 26.4 79.6 26 5.8 42.4
13:20 1015 29.97 844 24.92 26.9 80.3 25 5.2 41.4
13:25 1015 29.97 844 24.92 26.7 80.1 26 5.6 42.2
13:30 1014 29.94 844 24.92 26.8 80.3 24 4.9 40.8
13:35 1014 29.94 844 24.92 28 82.3 22 4.6 40.2
13:40 1014 29.94 844 24.92 27.7 81.9 22 4.7 40.4
13:45 1014 29.94 844 24.92 26.7 80 23 3.9 39
13:50 1014 29.94 843 24.89 26.8 80.3 21 2.9 37.3
13:55 1014 29.94 843 24.89 26.7 80.1 22 3.5 38.4
14:00 1014 29.94 843 24.89 27.1 80.7 21 3.4 38.1
14:05 1014 29.94 843 24.89 27.4 81.3 18 1.1 34
14:10 1014 29.94 843 24.89 28.1 82.6 18 2.2 36
14:15 1014 29.94 843 24.89 28.3 83 18 1.7 35.1
14:20 1014 29.94 843 24.89 28.6 83.5 18 2.1 35.7
14:25 1014 29.94 843 24.89 27.8 82 19 2.4 36.3
14:30 1014 29.94 843 24.89 27.2 81 18 1.4 34.6
14:35 1014 29.94 843 24.89 27.2 80.9 18 1.3 34.4
14:40 1014 29.94 843 24.89 27.1 80.9 19 1.9 35.3
14:45 1014 29.94 843 24.89 26.7 80 19 1.6 34.8
14:50 1013 29.91 843 24.89 26.3 79.4 20 2.2 36
14:55 1013 29.91 843 24.89 25.9 78.7 22 2.8 37
15:00 1014 29.94 843 24.89 25.3 77.6 22 2 35.6
15:05 1014 29.94 843 24.89 25.4 77.6 21 1.5 34.7
15:10 1014 29.94 843 24.89 26.1 78.9 20 1.9 35.4
15:15 1014 29.94 843 24.89 26.9 80.5 19 1.8 35.3
15:20 1014 29.94 843 24.89 28 82.4 18 2.1 35.8
15:25 1014 29.94 843 24.89 27.6 81.8 19 1.9 35.4
15:30 1014 29.94 843 24.89 26.9 80.5 19 1.6 35
15:35 1014 29.94 843 24.89 27.6 81.6 18 1 33.9
15:40 1014 29.94 843 24.89 27.9 82.2 18 1.3 34.4
15:45 1014 29.94 843 24.89 27.9 82.1 18 1.5 34.8
15:50 1014 29.94 843 24.89 28.6 83.6 17 1.4 34.5
15:55 1014 29.94 843 24.89 28.5 83.2 18 1.9 35.4
16:00 1014 29.94 843 24.89 28.1 82.5 19 2.7 36.8
16:05 1014 29.94 843 24.89 27.2 81 22 3.9 39
16:10 1014 29.94 843 24.89 25.9 78.7 25 4.6 40.4
16:15 1014 29.94 843 24.89 24.9 76.8 26 4.5 40.1
16:20 1014 29.94 843 24.89 24.8 76.6 26 4 39.2
16:25 1013 29.91 843 24.89 24.9 76.8 24 3.4 38.2
16:30 1013 29.91 843 24.89 25.3 77.5 23 2.6 36.8
16:35 1013 29.91 843 24.89 26 78.7 22 2.8 37.1
16:40 1013 29.91 843 24.89 26.7 80 22 3.4 38.1
16:45 1014 29.94 843 24.89 27.2 80.9 20 2.6 36.7
16:50 1014 29.94 843 24.89 27.4 81.4 20 3.1 37.5
16:55 1014 29.94 843 24.89 27.5 81.4 20 2.7 36.9
17:00 1014 29.94 843 24.89 27.4 81.4 20 2.9 37.3
17:05 1014 29.94 843 24.89 27.5 81.5 20 2.7 36.8
17:10 1014 29.94 843 24.89 27 80.6 23 4.4 40
17:15 1014 29.94 843 24.89 25.9 78.6 26 5.2 41.4
17:20 1014 29.94 843 24.89 25 76.9 28 5.6 42.2
17:20 1014 29.94 843 24.89 25 76.9 28 5.6 42.2
17:25 1014 29.94 843 24.89 24.7 76.5 28 5.3 41.6
17:30 1014 29.94 843 24.89 24.6 76.3 28 5 41.1
17:35 1014 29.94 843 24.89 24.2 75.6 29 5.2 41.4
17:40 1014 29.94 843 24.89 23.9 75.1 30 5.6 42.1
17:45 1014 29.94 843 24.89 23.7 74.6 30 5.4 41.7
17:50 1014 29.94 844 24.92 23.2 73.7 31 5.2 41.3
17:55 1015 29.97 844 24.92 22.9 73.3 33 6.2 43.1
18:00 1015 29.97 844 24.92 22.5 72.5 38 7.5 45.5
18:05 1015 29.97 844 24.92 22 71.6 40 7.8 46
18:10 1015 29.97 844 24.92 21.1 70 46 9.3 48.7
18:15 1015 29.97 845 24.95 20.1 68.1 55 10.8 51.5
18:20 1015 29.97 845 24.95 19.4 66.9 56 10.6 51.1
18:25 1015 29.97 844 24.92 18.4 65.2 62 11.1 52
18:30 1015 29.97 844 24.92 17.9 64.2 63 10.7 51.3
18:35 1015 29.97 844 24.92 17.6 63.7 59 9.6 49.2
18:40 1015 29.97 844 24.92 17.4 63.3 62 10.2 50.3
18:45 1015 29.97 844 24.92 17.2 62.9 59 9.1 48.4
18:50 1015 29.97 844 24.92 17 62.6 60 9.4 48.8
18:55 1015 29.97 844 24.92 16.7 62 64 9.9 49.7
19:00 1015 29.97 844 24.92 16.6 61.8 64 9.8 49.7
19:05 1015 29.97 845 24.95 16.5 61.7 62 9.4 48.8
19:10 1015 29.97 845 24.95 16.7 62 62 9.4 48.9
19:15 1015 29.97 845 24.95 16.8 62.2 60 9.2 48.5
19:20 1015 29.97 845 24.95 16.6 62 62 9.5 49
19:25 1016 30 845 24.95 16.5 61.6 63 9.6 49.2
19:30 1016 30 845 24.95 16.3 61.4 65 9.8 49.6
19:35 1016 30 845 24.95 16.2 61.1 65 9.6 49.3
19:40 1016 30 845 24.95 16.1 61 66 9.7 49.5
19:45 1016 30 845 24.95 16 60.7 65 9.5 49.2
19:50 1016 30 845 24.95 15.9 60.7 66 9.6 49.2
19:55 1016 30 845 24.95 16 60.7 64 9.1 48.4
20:00 1017 30.03 846 24.98 16 60.8 64 9.2 48.6
20:05 1017 30.03 846 24.98 16 60.9 64 9.4 48.9
20:10 1017 30.03 846 24.98 16.2 61.1 59 8.2 46.8
20:15 1017 30.03 846 24.98 16.4 61.6 67 10.3 50.5
20:20 1017 30.03 846 24.98 15.8 60.4 69 10.1 50.2
20:25 1017 30.03 846 24.98 15.6 60 67 9.6 49.3
20:30 1017 30.03 846 24.98 15.4 59.7 69 9.7 49.5
20:35 1017 30.03 846 24.98 15.1 59.1 70 9.6 49.3
20:40 1016 30 846 24.98 15.1 59.1 68 9.2 48.6
20:45 1017 30.03 846 24.98 15.1 59.2 70 9.8 49.7
20:50 1017 30.03 846 24.98 14.8 58.6 70 9.5 49.1
20:55 1017 30.03 846 24.98 14.8 58.6 69 9.3 48.8
21:00 1016 30 846 24.98 14.9 58.8 68 9.2 48.6
21:05 1016 30 845 24.95 15 59 68 9.1 48.4
21:10 1016 30 846 24.98 14.9 58.9 68 9.1 48.5
21:15 1016 30 846 24.98 14.8 58.7 68 9 48.2
21:20 1016 30 846 24.98 14.8 58.6 68 9 48.2
21:25 1016 30 846 24.98 14.8 58.7 67 8.7 47.7
21:30 1016 30 845 24.95 14.9 58.9 66 8.7 47.7
21:35 1016 30 845 24.95 15 59 64 8.3 47
21:40 1016 30 845 24.95 15.1 59.2 63 8.2 46.7
21:45 1016 30 845 24.95 15.2 59.4 61 7.9 46.2
21:50 1016 30 845 24.95 15.6 60 59 7.7 45.8
21:55 1016 30 845 24.95 15.6 60.1 59 7.8 46
22:00 1016 30 845 24.95 15.6 60 59 7.7 45.8
22:05 1016 30 845 24.95 15.5 59.9 61 8 46.4
22:10 1016 30 845 24.95 15.4 59.6 61 7.9 46.2
22:15 1016 30 845 24.95 15.4 59.7 59 7.6 45.7
22:20 1016 30 845 24.95 15.5 59.8 59 7.6 45.7
22:25 1016 30 845 24.95 15.5 59.8 60 7.7 45.9
22:30 1016 30 845 24.95 15.4 59.7 60 7.7 45.8
22:35 1016 30 845 24.95 15.2 59.4 62 8 46.4
22:40 1016 30 845 24.95 15.1 59.2 62 8 46.4
22:45 1016 30 845 24.95 15 59.1 62 7.9 46.3
22:50 1016 30 845 24.95 15 59 62 8 46.3
22:55 1016 30 845 24.95 15 59 62 8 46.3
23:00 1016 30 845 24.95 15 59.1 63 8 46.4
23:05 1016 30 845 24.95 15.1 59.1 63 8.1 46.5
23:10 1016 30 845 24.95 15.1 59.1 63 8.2 46.8
23:15 1016 30 845 24.95 15.1 59.1 62 8 46.4
23:20 1016 30 845 24.95 15.1 59.1 62 8 46.4
23:25 1016 30 846 24.98 15 59 63 8 46.4
23:30 1016 30 846 24.98 14.9 58.9 63 8 46.5
23:35 1016 30 846 24.98 14.9 58.8 63 8 46.4
23:40 1017 30.03 846 24.98 14.8 58.6 63 7.8 46.1
23:45 1017 30.03 846 24.98 14.8 58.6 62 7.7 45.9
23:50 1017 30.03 846 24.98 14.8 58.6 62 7.6 45.7
23:55 1017 30.03 846 24.98 15 58.9 60 7.5 45.4
24:00 1017 30.03 846 24.98 15 59 61 7.6 45.7